Parcialmente nublado
Parcialmente nublado
Parcialmente nublado
Mixto con llovizna
Parcialmente nublado
Parcialmente nublado
Mayormente nublado
(°C)
26°
26°
27°
26°
26°
26°
26°
(°C)
25°
25°
26°
25°
25°
24°
23°
ENE
ENE
E
E
E
ENE
ENE
(km/h)
13-17
14-18
14-19
14-19
14-19
14-18
13-17
(mm)
0
0
0
0.1
0
0
0
(%)
1
1
7
25
8
3
3

Elevación del sol

/ 58.6°
sun-icon
UV 5
04:14
20:54
Gibosa menguante (226°)
00:01
07:04

METAR a 52.17°N 20.97°E (EPWA)

Hora Condiciones Temperatura/
Punto de condensación
Viento Visibilidad Tiempo Nubes Presión Cambiar Bruto
VFR 26°C / 10°C 80º variable 350º to 130º 8kt >10km - Clouds and Visibility OK 1017 No Significant change EPWA 070900Z 08008KT 350V130 CAVOK 26/10 Q1017 NOSIG
VFR 25°C / 10°C 60º variable 030º to 100º 9kt >10km - Clouds and Visibility OK 1018 No Significant change EPWA 070830Z 06009KT 030V100 CAVOK 25/10 Q1018 NOSIG
VFR 24°C / 10°C 70º 9kt >10km - Clouds and Visibility OK 1018 No Significant change EPWA 070800Z 07009KT CAVOK 24/10 Q1018 NOSIG
VFR 24°C / 10°C 80º variable 020º to 130º 5kt >10km - Clouds and Visibility OK 1018 No Significant change EPWA 070730Z 08005KT 020V130 CAVOK 24/10 Q1018 NOSIG
VFR 22°C / 9°C 90º variable 040º to 120º 6kt >10km - Clouds and Visibility OK 1018 No Significant change EPWA 070700Z 09006KT 040V120 CAVOK 22/09 Q1018 NOSIG
VFR 21°C / 9°C 80º variable 060º to 120º 4kt >10km - Clouds and Visibility OK 1018 No Significant change EPWA 070630Z 08004KT 060V120 CAVOK 21/09 Q1018 NOSIG
VFR 20°C / 8°C 90º variable 050º to 120º 4kt >10km - Clouds and Visibility OK 1018 No Significant change EPWA 070600Z 09004KT 050V120 CAVOK 20/08 Q1018 NOSIG
VFR 20°C / 7°C 80º variable 050º to 110º 5kt >10km - Clouds and Visibility OK 1018 No Significant change EPWA 070530Z 08005KT 050V110 CAVOK 20/07 Q1018 NOSIG
VFR 20°C / 7°C 50º variable 020º to 100º 5kt >10km - Clouds and Visibility OK 1018 No Significant change EPWA 070500Z 05005KT 020V100 CAVOK 20/07 Q1018 NOSIG
VFR 19°C / 7°C 50º variable 360º to 100º 4kt >10km - Clouds and Visibility OK 1018 No Significant change EPWA 070430Z 05004KT 360V100 CAVOK 19/07 Q1018 NOSIG
VFR 18°C / 6°C 40º variable 010º to 090º 4kt >10km - Clouds and Visibility OK 1018 No Significant change EPWA 070400Z 04004KT 010V090 CAVOK 18/06 Q1018 NOSIG
VFR 18°C / 6°C 50º variable 020º to 080º 4kt >10km - Clouds and Visibility OK 1017 No Significant change EPWA 070330Z 05004KT 020V080 CAVOK 18/06 Q1017 NOSIG
VFR 17°C / 7°C 30º 4kt >10km - Clouds and Visibility OK 1017 No Significant change EPWA 070300Z 03004KT CAVOK 17/07 Q1017 NOSIG
VFR 17°C / 6°C 50º variable 030º to 090º 4kt >10km - Clouds and Visibility OK 1017 No Significant change EPWA 070230Z 05004KT 030V090 CAVOK 17/06 Q1017 NOSIG
VFR 19°C / 6°C 60º 6kt >10km - Clouds and Visibility OK 1017 No Significant change EPWA 070200Z 06006KT CAVOK 19/06 Q1017 NOSIG
VFR 18°C / 6°C 60º 5kt >10km - Clouds and Visibility OK 1018 No Significant change EPWA 070130Z 06005KT CAVOK 18/06 Q1018 NOSIG
VFR 17°C / 7°C variable 2kt >10km - Clouds and Visibility OK 1018 No Significant change EPWA 070100Z VRB02KT CAVOK 17/07 Q1018 NOSIG
VFR 16°C / 8°C 30º 3kt >10km - Clouds and Visibility OK 1018 No Significant change EPWA 070030Z 03003KT CAVOK 16/08 Q1018 NOSIG
VFR 16°C / 8°C 10º 4kt >10km - Clouds and Visibility OK 1018 No Significant change EPWA 070000Z 01004KT CAVOK 16/08 Q1018 NOSIG
VFR 15°C / 8°C 20º 3kt >10km - Clouds and Visibility OK 1018 No Significant change EPWA 062330Z 02003KT CAVOK 15/08 Q1018 NOSIG
VFR 16°C / 9°C 340º 2kt >10km - Clouds and Visibility OK 1018 No Significant change EPWA 062300Z 34002KT CAVOK 16/09 Q1018 NOSIG
VFR 16°C / 9°C variable 2kt >10km - Clouds and Visibility OK 1018 No Significant change EPWA 062230Z VRB02KT CAVOK 16/09 Q1018 NOSIG
VFR 17°C / 9°C 170º 3kt >10km - Clouds and Visibility OK 1018 No Significant change EPWA 062200Z 17003KT CAVOK 17/09 Q1018 NOSIG
VFR 21°C / 8°C 80º 5kt >10km - Clouds and Visibility OK 1018 No Significant change EPWA 062130Z 08005KT CAVOK 21/08 Q1018 NOSIG

VFR

26°C / 10°C

[Más]
Viento 80º variable 350º to 130º 8kt
Visibilidad >10km
Tiempo -
Nubes Clouds and Visibility OK
Presión 1017
Cambiar No Significant change
Bruto EPWA 070900Z 08008KT 350V130 CAVOK 26/10 Q1017 NOSIG

VFR

25°C / 10°C

[Más]
Viento 60º variable 030º to 100º 9kt
Visibilidad >10km
Tiempo -
Nubes Clouds and Visibility OK
Presión 1018
Cambiar No Significant change
Bruto EPWA 070830Z 06009KT 030V100 CAVOK 25/10 Q1018 NOSIG

VFR

24°C / 10°C

[Más]
Viento 70º 9kt
Visibilidad >10km
Tiempo -
Nubes Clouds and Visibility OK
Presión 1018
Cambiar No Significant change
Bruto EPWA 070800Z 07009KT CAVOK 24/10 Q1018 NOSIG

VFR

24°C / 10°C

[Más]
Viento 80º variable 020º to 130º 5kt
Visibilidad >10km
Tiempo -
Nubes Clouds and Visibility OK
Presión 1018
Cambiar No Significant change
Bruto EPWA 070730Z 08005KT 020V130 CAVOK 24/10 Q1018 NOSIG

VFR

22°C / 9°C

[Más]
Viento 90º variable 040º to 120º 6kt
Visibilidad >10km
Tiempo -
Nubes Clouds and Visibility OK
Presión 1018
Cambiar No Significant change
Bruto EPWA 070700Z 09006KT 040V120 CAVOK 22/09 Q1018 NOSIG

VFR

21°C / 9°C

[Más]
Viento 80º variable 060º to 120º 4kt
Visibilidad >10km
Tiempo -
Nubes Clouds and Visibility OK
Presión 1018
Cambiar No Significant change
Bruto EPWA 070630Z 08004KT 060V120 CAVOK 21/09 Q1018 NOSIG

VFR

20°C / 8°C

[Más]
Viento 90º variable 050º to 120º 4kt
Visibilidad >10km
Tiempo -
Nubes Clouds and Visibility OK
Presión 1018
Cambiar No Significant change
Bruto EPWA 070600Z 09004KT 050V120 CAVOK 20/08 Q1018 NOSIG

VFR

20°C / 7°C

[Más]
Viento 80º variable 050º to 110º 5kt
Visibilidad >10km
Tiempo -
Nubes Clouds and Visibility OK
Presión 1018
Cambiar No Significant change
Bruto EPWA 070530Z 08005KT 050V110 CAVOK 20/07 Q1018 NOSIG

VFR

20°C / 7°C

[Más]
Viento 50º variable 020º to 100º 5kt
Visibilidad >10km
Tiempo -
Nubes Clouds and Visibility OK
Presión 1018
Cambiar No Significant change
Bruto EPWA 070500Z 05005KT 020V100 CAVOK 20/07 Q1018 NOSIG

VFR

19°C / 7°C

[Más]
Viento 50º variable 360º to 100º 4kt
Visibilidad >10km
Tiempo -
Nubes Clouds and Visibility OK
Presión 1018
Cambiar No Significant change
Bruto EPWA 070430Z 05004KT 360V100 CAVOK 19/07 Q1018 NOSIG

VFR

18°C / 6°C

[Más]
Viento 40º variable 010º to 090º 4kt
Visibilidad >10km
Tiempo -
Nubes Clouds and Visibility OK
Presión 1018
Cambiar No Significant change
Bruto EPWA 070400Z 04004KT 010V090 CAVOK 18/06 Q1018 NOSIG

VFR

18°C / 6°C

[Más]
Viento 50º variable 020º to 080º 4kt
Visibilidad >10km
Tiempo -
Nubes Clouds and Visibility OK
Presión 1017
Cambiar No Significant change
Bruto EPWA 070330Z 05004KT 020V080 CAVOK 18/06 Q1017 NOSIG

VFR

17°C / 7°C

[Más]
Viento 30º 4kt
Visibilidad >10km
Tiempo -
Nubes Clouds and Visibility OK
Presión 1017
Cambiar No Significant change
Bruto EPWA 070300Z 03004KT CAVOK 17/07 Q1017 NOSIG

VFR

17°C / 6°C

[Más]
Viento 50º variable 030º to 090º 4kt
Visibilidad >10km
Tiempo -
Nubes Clouds and Visibility OK
Presión 1017
Cambiar No Significant change
Bruto EPWA 070230Z 05004KT 030V090 CAVOK 17/06 Q1017 NOSIG

VFR

19°C / 6°C

[Más]
Viento 60º 6kt
Visibilidad >10km
Tiempo -
Nubes Clouds and Visibility OK
Presión 1017
Cambiar No Significant change
Bruto EPWA 070200Z 06006KT CAVOK 19/06 Q1017 NOSIG

VFR

18°C / 6°C

[Más]
Viento 60º 5kt
Visibilidad >10km
Tiempo -
Nubes Clouds and Visibility OK
Presión 1018
Cambiar No Significant change
Bruto EPWA 070130Z 06005KT CAVOK 18/06 Q1018 NOSIG

VFR

17°C / 7°C

[Más]
Viento variable 2kt
Visibilidad >10km
Tiempo -
Nubes Clouds and Visibility OK
Presión 1018
Cambiar No Significant change
Bruto EPWA 070100Z VRB02KT CAVOK 17/07 Q1018 NOSIG

VFR

16°C / 8°C

[Más]
Viento 30º 3kt
Visibilidad >10km
Tiempo -
Nubes Clouds and Visibility OK
Presión 1018
Cambiar No Significant change
Bruto EPWA 070030Z 03003KT CAVOK 16/08 Q1018 NOSIG

VFR

16°C / 8°C

[Más]
Viento 10º 4kt
Visibilidad >10km
Tiempo -
Nubes Clouds and Visibility OK
Presión 1018
Cambiar No Significant change
Bruto EPWA 070000Z 01004KT CAVOK 16/08 Q1018 NOSIG

VFR

15°C / 8°C

[Más]
Viento 20º 3kt
Visibilidad >10km
Tiempo -
Nubes Clouds and Visibility OK
Presión 1018
Cambiar No Significant change
Bruto EPWA 062330Z 02003KT CAVOK 15/08 Q1018 NOSIG

VFR

16°C / 9°C

[Más]
Viento 340º 2kt
Visibilidad >10km
Tiempo -
Nubes Clouds and Visibility OK
Presión 1018
Cambiar No Significant change
Bruto EPWA 062300Z 34002KT CAVOK 16/09 Q1018 NOSIG

VFR

16°C / 9°C

[Más]
Viento variable 2kt
Visibilidad >10km
Tiempo -
Nubes Clouds and Visibility OK
Presión 1018
Cambiar No Significant change
Bruto EPWA 062230Z VRB02KT CAVOK 16/09 Q1018 NOSIG

VFR

17°C / 9°C

[Más]
Viento 170º 3kt
Visibilidad >10km
Tiempo -
Nubes Clouds and Visibility OK
Presión 1018
Cambiar No Significant change
Bruto EPWA 062200Z 17003KT CAVOK 17/09 Q1018 NOSIG

VFR

21°C / 8°C

[Más]
Viento 80º 5kt
Visibilidad >10km
Tiempo -
Nubes Clouds and Visibility OK
Presión 1018
Cambiar No Significant change
Bruto EPWA 062130Z 08005KT CAVOK 21/08 Q1018 NOSIG

TAF a 52.17°N 20.97°E (EPWA)

From till


From till Wind 80º 10kt. Visibility 10km or more. Nil Significant Cloud.
Temporarly from till Light Showers Rain . Scattered Clouds 5000ft.
With 40% probability, Temporarly from till Wind variable 15kt. Gust 27kt. Thunderstorm Rain .

Bruto: TAF EPWA 070830Z 0709/0809 08010KT CAVOK TEMPO 0712/0720 -SHRA SCT050CB PROB40 TEMPO 0714/0718 VRB15G27KT TSRA

Radar y precipitación nowcast para 52.17°N 20.97°E

llovizna
Leve
Moderado
Fuerte
Muy fuerte
Granizo

El marcador del lugar se coloca en 52.17°N 20.97°E. Esta animación muestra el radar de precipitación para el intervalo de tiempo seleccionado, así como una previsión de 2h. Las cruces naranjas indican rayos. Datos proporcionados por nowcast.de (disponibles en EE.UU., Europa y Australia). La llovizna o una ligera nevada pueden ser invisibles para el radar. La intensidad de la precipitación está codificada por colores, del turquesa al rojo.

Imágenes actuales de satélite y lluvia para 52.17°N 20.97°E

El marcador del lugar se coloca en 52.17°N 20.97°E. [Más]

La imagen de satélite en tiempo real se aprovecha de la combinación de bandas de la luz visible y de la luz infrarroja. Cómo se pueden detectar cambios de temperaturas a través de la banda infrarrojo, la imagen no aparece oscura de noche. No obstante, la niebla y las nubes bajas son apenas visibles en las imágenes de infrarrojo ya que las diferencias de temperaturas entre el suelo y la niebla son muy pequeñas, por eso, son casi invisibles durante la noche. Las imágenes de satélite del Meteosat (Europa) son actualizados en tiempo real cada 5 minutos. Las imágenes del GOES-16/GOES-17 (América del Norte y América del Sur) y Himawari (Asia) son actualizadas cada 10 minutos.

La precipitación se estima a partir del radar y de los satélites. Las estimaciones de la precipitación desde los satélites son menos precisas durante la noche que durante el día.

© 2023 meteoblue, NOAA Satellites GOES-16 and EUMETSAT. Datos de relámpagos proporcionados por nowcast.

Volver al principio